sensor_id;sensor_type;location;lat;lon;timestamp;pressure;altitude;pressure_sealevel;temperature;humidity
27613;BME280;15036;48.094;-1.690;2022-09-01T00:01:34;101038.69;;;24.65;65.24
27613;BME280;15036;48.094;-1.690;2022-09-01T00:04:01;101037.31;;;24.67;64.80
27613;BME280;15036;48.094;-1.690;2022-09-01T00:06:29;101035.34;;;24.63;65.08
27613;BME280;15036;48.094;-1.690;2022-09-01T00:08:58;101034.84;;;24.56;65.18
27613;BME280;15036;48.094;-1.690;2022-09-01T00:11:26;101036.22;;;24.53;64.72
27613;BME280;15036;48.094;-1.690;2022-09-01T00:13:52;101035.63;;;24.66;64.93
27613;BME280;15036;48.094;-1.690;2022-09-01T00:16:19;101050.16;;;24.58;64.95
27613;BME280;15036;48.094;-1.690;2022-09-01T00:18:47;101048.75;;;24.61;64.82
27613;BME280;15036;48.094;-1.690;2022-09-01T00:21:19;101049.59;;;24.61;64.60
27613;BME280;15036;48.094;-1.690;2022-09-01T00:23:45;101038.69;;;24.65;64.78
27613;BME280;15036;48.094;-1.690;2022-09-01T00:26:11;101041.81;;;24.53;64.90
27613;BME280;15036;48.094;-1.690;2022-09-01T00:28:38;101031.22;;;24.45;65.28
27613;BME280;15036;48.094;-1.690;2022-09-01T00:31:04;101032.84;;;24.61;64.95
27613;BME280;15036;48.094;-1.690;2022-09-01T00:33:32;101030.66;;;24.53;64.97
27613;BME280;15036;48.094;-1.690;2022-09-01T00:35:57;101034.25;;;24.59;64.80
27613;BME280;15036;48.094;-1.690;2022-09-01T00:38:24;101030.06;;;24.56;64.71
27613;BME280;15036;48.094;-1.690;2022-09-01T00:40:49;101028.38;;;24.60;64.71
27613;BME280;15036;48.094;-1.690;2022-09-01T00:43:35;101034.28;;;24.54;64.74
27613;BME280;15036;48.094;-1.690;2022-09-01T00:46:02;101040.97;;;24.53;64.75
27613;BME280;15036;48.094;-1.690;2022-09-01T00:48:27;101037.63;;;24.51;64.90
27613;BME280;15036;48.094;-1.690;2022-09-01T00:50:52;101033.72;;;24.52;64.88
27613;BME280;15036;48.094;-1.690;2022-09-01T00:53:18;101026.72;;;24.59;64.54
27613;BME280;15036;48.094;-1.690;2022-09-01T00:55:43;101029.22;;;24.66;64.29
27613;BME280;15036;48.094;-1.690;2022-09-01T00:58:09;101035.38;;;24.58;64.57
27613;BME280;15036;48.094;-1.690;2022-09-01T01:00:36;101032.00;;;24.66;64.31
27613;BME280;15036;48.094;-1.690;2022-09-01T01:03:12;101033.66;;;24.72;63.76
27613;BME280;15036;48.094;-1.690;2022-09-01T01:05:42;101026.16;;;24.57;64.07
27613;BME280;15036;48.094;-1.690;2022-09-01T01:08:11;101031.75;;;24.57;64.16
27613;BME280;15036;48.094;-1.690;2022-09-01T01:10:39;101029.81;;;24.53;64.54
27613;BME280;15036;48.094;-1.690;2022-09-01T01:13:15;101036.75;;;24.60;64.21
27613;BME280;15036;48.094;-1.690;2022-09-01T01:15:42;101042.63;;;24.64;63.86
27613;BME280;15036;48.094;-1.690;2022-09-01T01:18:14;101034.88;;;24.41;64.37
27613;BME280;15036;48.094;-1.690;2022-09-01T01:20:41;101042.94;;;24.47;64.50
27613;BME280;15036;48.094;-1.690;2022-09-01T01:23:36;101047.94;;;24.50;64.58
27613;BME280;15036;48.094;-1.690;2022-09-01T01:26:07;101042.38;;;24.50;64.69
27613;BME280;15036;48.094;-1.690;2022-09-01T01:28:37;101044.94;;;24.42;64.89
27613;BME280;15036;48.094;-1.690;2022-09-01T01:31:12;101048.28;;;24.39;64.89
27613;BME280;15036;48.094;-1.690;2022-09-01T01:33:42;101036.72;;;24.70;63.94
27613;BME280;15036;48.094;-1.690;2022-09-01T01:36:20;101040.09;;;24.62;63.53
27613;BME280;15036;48.094;-1.690;2022-09-01T01:38:50;101036.19;;;24.58;63.76
27613;BME280;15036;48.094;-1.690;2022-09-01T01:41:17;101041.53;;;24.60;63.71
27613;BME280;15036;48.094;-1.690;2022-09-01T01:43:46;101042.94;;;24.47;64.00
27613;BME280;15036;48.094;-1.690;2022-09-01T01:46:12;101043.47;;;24.54;63.86
27613;BME280;15036;48.094;-1.690;2022-09-01T01:48:41;101043.50;;;24.49;63.90
27613;BME280;15036;48.094;-1.690;2022-09-01T01:51:08;101039.63;;;24.40;64.32
27613;BME280;15036;48.094;-1.690;2022-09-01T01:53:35;101033.75;;;24.37;64.59
27613;BME280;15036;48.094;-1.690;2022-09-01T01:56:02;101032.41;;;24.34;64.57
27613;BME280;15036;48.094;-1.690;2022-09-01T01:58:28;101037.69;;;24.31;64.30
27613;BME280;15036;48.094;-1.690;2022-09-01T02:00:55;101030.97;;;24.42;64.25
27613;BME280;15036;48.094;-1.690;2022-09-01T02:03:24;101034.06;;;24.25;64.75
27613;BME280;15036;48.094;-1.690;2022-09-01T02:05:52;101032.72;;;24.18;64.56
27613;BME280;15036;48.094;-1.690;2022-09-01T02:08:21;101030.19;;;24.26;64.49
27613;BME280;15036;48.094;-1.690;2022-09-01T02:10:51;101017.03;;;24.42;63.84
27613;BME280;15036;48.094;-1.690;2022-09-01T02:13:19;101027.34;;;24.46;63.29
27613;BME280;15036;48.094;-1.690;2022-09-01T02:15:56;101034.31;;;24.39;63.42
27613;BME280;15036;48.094;-1.690;2022-09-01T02:18:25;101030.19;;;24.21;63.90
27613;BME280;15036;48.094;-1.690;2022-09-01T02:20:53;101031.00;;;24.27;63.81
27613;BME280;15036;48.094;-1.690;2022-09-01T02:23:20;101027.16;;;24.13;64.08
27613;BME280;15036;48.094;-1.690;2022-09-01T02:25:55;101023.78;;;24.05;64.17
27613;BME280;15036;48.094;-1.690;2022-09-01T02:28:22;101024.34;;;24.07;63.90
27613;BME280;15036;48.094;-1.690;2022-09-01T02:30:49;101029.63;;;23.99;63.68
27613;BME280;15036;48.094;-1.690;2022-09-01T02:33:19;101023.50;;;23.92;64.17
27613;BME280;15036;48.094;-1.690;2022-09-01T02:35:46;101033.53;;;23.98;64.06
27613;BME280;15036;48.094;-1.690;2022-09-01T02:38:12;101029.38;;;24.05;63.69
27613;BME280;15036;48.094;-1.690;2022-09-01T02:40:39;101026.31;;;23.92;64.12
27613;BME280;15036;48.094;-1.690;2022-09-01T02:43:05;101037.19;;;23.78;64.27
27613;BME280;15036;48.094;-1.690;2022-09-01T02:45:30;101023.50;;;23.82;64.22
27613;BME280;15036;48.094;-1.690;2022-09-01T02:47:57;101023.78;;;24.00;64.06
27613;BME280;15036;48.094;-1.690;2022-09-01T02:50:24;101023.78;;;23.85;64.04
27613;BME280;15036;48.094;-1.690;2022-09-01T02:52:51;101024.06;;;23.94;63.87
27613;BME280;15036;48.094;-1.690;2022-09-01T02:55:17;101021.56;;;23.87;64.23
27613;BME280;15036;48.094;-1.690;2022-09-01T02:57:50;101017.91;;;23.97;63.88
27613;BME280;15036;48.094;-1.690;2022-09-01T03:00:16;101024.38;;;24.02;63.69
27613;BME280;15036;48.094;-1.690;2022-09-01T03:02:51;101023.50;;;23.92;63.53
27613;BME280;15036;48.094;-1.690;2022-09-01T03:05:19;101014.00;;;23.83;63.80
27613;BME280;15036;48.094;-1.690;2022-09-01T03:07:51;101018.19;;;23.95;63.53
27613;BME280;15036;48.094;-1.690;2022-09-01T03:10:22;101021.03;;;23.70;64.21
27613;BME280;15036;48.094;-1.690;2022-09-01T03:12:48;101025.75;;;23.65;64.70
27613;BME280;15036;48.094;-1.690;2022-09-01T03:15:14;101022.13;;;23.59;64.50
27613;BME280;15036;48.094;-1.690;2022-09-01T03:17:39;101012.09;;;23.58;64.85
27613;BME280;15036;48.094;-1.690;2022-09-01T03:20:06;101006.81;;;23.67;64.71
27613;BME280;15036;48.094;-1.690;2022-09-01T03:22:32;101009.88;;;23.60;64.90
27613;BME280;15036;48.094;-1.690;2022-09-01T03:24:58;101013.19;;;23.57;64.98
27613;BME280;15036;48.094;-1.690;2022-09-01T03:27:23;101017.94;;;23.57;65.08
27613;BME280;15036;48.094;-1.690;2022-09-01T03:29:49;101007.91;;;23.56;64.72
27613;BME280;15036;48.094;-1.690;2022-09-01T03:32:14;100997.31;;;23.63;64.83
27613;BME280;15036;48.094;-1.690;2022-09-01T03:34:40;100999.28;;;23.47;65.28
27613;BME280;15036;48.094;-1.690;2022-09-01T03:37:06;100998.72;;;23.50;65.00
27613;BME280;15036;48.094;-1.690;2022-09-01T03:39:32;101000.38;;;23.61;64.73
27613;BME280;15036;48.094;-1.690;2022-09-01T03:41:59;100995.66;;;23.57;64.59
27613;BME280;15036;48.094;-1.690;2022-09-01T03:44:25;100991.47;;;23.49;64.79
27613;BME280;15036;48.094;-1.690;2022-09-01T03:46:50;100985.88;;;23.59;64.74
27613;BME280;15036;48.094;-1.690;2022-09-01T03:49:17;100988.97;;;23.53;64.83
27613;BME280;15036;48.094;-1.690;2022-09-01T03:51:51;100991.19;;;23.56;64.63
27613;BME280;15036;48.094;-1.690;2022-09-01T03:54:21;100992.56;;;23.48;64.98
27613;BME280;15036;48.094;-1.690;2022-09-01T03:56:55;100988.13;;;23.62;64.60
27613;BME280;15036;48.094;-1.690;2022-09-01T03:59:23;100985.31;;;23.57;64.66
27613;BME280;15036;48.094;-1.690;2022-09-01T04:01:50;100982.53;;;23.52;64.56
27613;BME280;15036;48.094;-1.690;2022-09-01T04:04:16;100984.19;;;23.53;64.76
27613;BME280;15036;48.094;-1.690;2022-09-01T04:06:43;100982.53;;;23.57;64.28
27613;BME280;15036;48.094;-1.690;2022-09-01T04:09:09;100979.75;;;23.52;64.30
27613;BME280;15036;48.094;-1.690;2022-09-01T04:11:36;100985.06;;;23.49;64.47
27613;BME280;15036;48.094;-1.690;2022-09-01T04:14:02;100985.06;;;23.59;64.17
27613;BME280;15036;48.094;-1.690;2022-09-01T04:16:29;100983.09;;;23.59;64.57
27613;BME280;15036;48.094;-1.690;2022-09-01T04:19:16;100987.56;;;23.50;64.40
27613;BME280;15036;48.094;-1.690;2022-09-01T04:21:46;100985.88;;;23.59;64.65
27613;BME280;15036;48.094;-1.690;2022-09-01T04:24:12;100981.72;;;23.47;64.47
27613;BME280;15036;48.094;-1.690;2022-09-01T04:26:40;100980.31;;;23.44;64.89
27613;BME280;15036;48.094;-1.690;2022-09-01T04:29:07;100985.88;;;23.59;64.60
27613;BME280;15036;48.094;-1.690;2022-09-01T04:31:35;100973.06;;;23.48;64.46
27613;BME280;15036;48.094;-1.690;2022-09-01T04:34:03;100972.81;;;23.55;64.60
27613;BME280;15036;48.094;-1.690;2022-09-01T04:36:35;100970.28;;;23.48;64.77
27613;BME280;15036;48.094;-1.690;2022-09-01T04:39:03;100967.78;;;23.57;64.54
27613;BME280;15036;48.094;-1.690;2022-09-01T04:41:33;100966.94;;;23.46;64.64
27613;BME280;15036;48.094;-1.690;2022-09-01T04:44:01;100964.69;;;23.53;64.36
27613;BME280;15036;48.094;-1.690;2022-09-01T04:46:30;100965.84;;;23.47;64.63
27613;BME280;15036;48.094;-1.690;2022-09-01T04:48:59;100965.84;;;23.37;64.39
27613;BME280;15036;48.094;-1.690;2022-09-01T04:51:27;100970.00;;;23.50;64.25
27613;BME280;15036;48.094;-1.690;2022-09-01T04:53:55;100971.41;;;23.47;64.48
27613;BME280;15036;48.094;-1.690;2022-09-01T04:56:23;100957.75;;;23.61;64.20
27613;BME280;15036;48.094;-1.690;2022-09-01T04:58:50;100968.06;;;23.50;64.20
27613;BME280;15036;48.094;-1.690;2022-09-01T05:01:20;100970.56;;;23.47;64.58
27613;BME280;15036;48.094;-1.690;2022-09-01T05:03:47;100967.50;;;23.48;64.52
27613;BME280;15036;48.094;-1.690;2022-09-01T05:06:21;100958.84;;;23.40;64.63
27613;BME280;15036;48.094;-1.690;2022-09-01T05:08:46;100963.31;;;23.46;64.55
27613;BME280;15036;48.094;-1.690;2022-09-01T05:11:13;100952.47;;;23.49;64.29
27613;BME280;15036;48.094;-1.690;2022-09-01T05:13:46;100957.47;;;23.47;64.18
27613;BME280;15036;48.094;-1.690;2022-09-01T05:16:15;100948.53;;;23.55;64.18
27613;BME280;15036;48.094;-1.690;2022-09-01T05:18:44;100950.78;;;23.48;64.58
27613;BME280;15036;48.094;-1.690;2022-09-01T05:21:12;100956.88;;;23.55;64.12
27613;BME280;15036;48.094;-1.690;2022-09-01T05:23:41;100951.63;;;23.49;64.00
27613;BME280;15036;48.094;-1.690;2022-09-01T05:26:19;100962.19;;;23.52;63.99
27613;BME280;15036;48.094;-1.690;2022-09-01T05:28:47;100952.19;;;23.51;63.98
27613;BME280;15036;48.094;-1.690;2022-09-01T05:31:15;100959.72;;;23.45;64.41
27613;BME280;15036;48.094;-1.690;2022-09-01T05:33:45;100962.19;;;23.52;63.86
27613;BME280;15036;48.094;-1.690;2022-09-01T05:36:14;100959.94;;;23.64;63.46
27613;BME280;15036;48.094;-1.690;2022-09-01T05:38:40;100957.16;;;23.54;63.75
27613;BME280;15036;48.094;-1.690;2022-09-01T05:41:10;100956.63;;;23.62;63.71
27613;BME280;15036;48.094;-1.690;2022-09-01T05:43:40;100958.56;;;23.66;63.42
27613;BME280;15036;48.094;-1.690;2022-09-01T05:46:12;100954.13;;;23.60;63.08
27613;BME280;15036;48.094;-1.690;2022-09-01T05:48:44;100957.47;;;23.62;63.05
27613;BME280;15036;48.094;-1.690;2022-09-01T05:51:11;100952.44;;;23.64;62.81
27613;BME280;15036;48.094;-1.690;2022-09-01T05:53:39;100954.94;;;23.71;62.72
27613;BME280;15036;48.094;-1.690;2022-09-01T05:56:06;100960.78;;;23.69;62.45
27613;BME280;15036;48.094;-1.690;2022-09-01T05:58:34;100959.66;;;23.85;62.27
27613;BME280;15036;48.094;-1.690;2022-09-01T06:01:00;100959.34;;;23.87;61.80
27613;BME280;15036;48.094;-1.690;2022-09-01T06:03:27;100959.38;;;23.82;62.15
27613;BME280;15036;48.094;-1.690;2022-09-01T06:06:02;100963.00;;;23.82;61.86
27613;BME280;15036;48.094;-1.690;2022-09-01T06:08:27;100957.97;;;23.89;62.13
27613;BME280;15036;48.094;-1.690;2022-09-01T06:10:53;100961.31;;;23.86;61.79
27613;BME280;15036;48.094;-1.690;2022-09-01T06:13:19;100958.81;;;23.90;61.82
27613;BME280;15036;48.094;-1.690;2022-09-01T06:15:49;100956.31;;;23.88;61.96
27613;BME280;15036;48.094;-1.690;2022-09-01T06:18:15;100958.53;;;23.86;61.87
27613;BME280;15036;48.094;-1.690;2022-09-01T06:20:44;100954.66;;;23.82;62.51
27613;BME280;15036;48.094;-1.690;2022-09-01T06:23:10;100952.09;;;23.96;61.76
27613;BME280;15036;48.094;-1.690;2022-09-01T06:25:40;100957.69;;;24.06;61.29
27613;BME280;15036;48.094;-1.690;2022-09-01T06:28:10;100952.09;;;24.06;61.47
27613;BME280;15036;48.094;-1.690;2022-09-01T06:30:37;100949.88;;;24.08;61.26
27613;BME280;15036;48.094;-1.690;2022-09-01T06:33:04;100950.13;;;24.12;61.13
27613;BME280;15036;48.094;-1.690;2022-09-01T06:35:36;100951.25;;;24.16;60.96
27613;BME280;15036;48.094;-1.690;2022-09-01T06:38:04;100950.09;;;24.22;60.70
27613;BME280;15036;48.094;-1.690;2022-09-01T06:40:32;100963.75;;;24.28;60.27
27613;BME280;15036;48.094;-1.690;2022-09-01T06:42:58;100965.69;;;24.33;60.11
27613;BME280;15036;48.094;-1.690;2022-09-01T06:45:27;100966.22;;;24.40;60.15
27613;BME280;15036;48.094;-1.690;2022-09-01T06:47:52;100964.81;;;24.42;60.26
27613;BME280;15036;48.094;-1.690;2022-09-01T06:50:21;100965.31;;;24.54;59.78
27613;BME280;15036;48.094;-1.690;2022-09-01T06:52:48;100966.63;;;24.77;58.99
27613;BME280;15036;48.094;-1.690;2022-09-01T06:55:26;100972.22;;;24.72;58.96
27613;BME280;15036;48.094;-1.690;2022-09-01T06:57:58;100975.00;;;24.77;58.67
27613;BME280;15036;48.094;-1.690;2022-09-01T07:00:24;100972.66;;;24.94;58.01
27613;BME280;15036;48.094;-1.690;2022-09-01T07:02:56;100975.16;;;25.01;57.76
27613;BME280;15036;48.094;-1.690;2022-09-01T07:05:24;100972.66;;;24.94;58.05
27613;BME280;15036;48.094;-1.690;2022-09-01T07:07:52;100969.59;;;24.96;57.72
27613;BME280;15036;48.094;-1.690;2022-09-01T07:10:24;100971.56;;;24.95;58.72
27613;BME280;15036;48.094;-1.690;2022-09-01T07:12:55;100968.72;;;25.00;58.12
27613;BME280;15036;48.094;-1.690;2022-09-01T07:15:22;100970.09;;;25.08;57.98
27613;BME280;15036;48.094;-1.690;2022-09-01T07:17:51;100967.78;;;25.15;58.20
27613;BME280;15036;48.094;-1.690;2022-09-01T07:20:26;100974.16;;;25.20;57.69
27613;BME280;15036;48.094;-1.690;2022-09-01T07:22:54;100971.91;;;25.27;57.64
27613;BME280;15036;48.094;-1.690;2022-09-01T07:25:49;100966.25;;;25.32;57.97
27613;BME280;15036;48.094;-1.690;2022-09-01T07:28:16;100968.25;;;25.27;58.19
27613;BME280;15036;48.094;-1.690;2022-09-01T07:30:46;100962.63;;;25.32;57.86
27613;BME280;15036;48.094;-1.690;2022-09-01T07:33:14;100966.22;;;25.42;57.69
27613;BME280;15036;48.094;-1.690;2022-09-01T07:35:41;100969.75;;;25.53;57.26
27613;BME280;15036;48.094;-1.690;2022-09-01T07:38:08;100964.41;;;25.56;57.15
27613;BME280;15036;48.094;-1.690;2022-09-01T07:40:38;100964.97;;;25.53;57.15
27613;BME280;15036;48.094;-1.690;2022-09-01T07:43:14;100966.88;;;25.63;56.82
27613;BME280;15036;48.094;-1.690;2022-09-01T07:45:43;100970.25;;;25.60;56.97
27613;BME280;15036;48.094;-1.690;2022-09-01T07:48:11;100959.50;;;25.72;56.11
27613;BME280;15036;48.094;-1.690;2022-09-01T07:50:41;100965.69;;;25.69;56.49
27613;BME280;15036;48.094;-1.690;2022-09-01T07:53:15;100966.19;;;25.76;56.19
27613;BME280;15036;48.094;-1.690;2022-09-01T07:55:45;100968.09;;;25.81;55.79
27613;BME280;15036;48.094;-1.690;2022-09-01T07:58:12;100964.06;;;25.92;54.49
27613;BME280;15036;48.094;-1.690;2022-09-01T08:00:38;100966.13;;;25.81;55.04
27613;BME280;15036;48.094;-1.690;2022-09-01T08:03:04;100969.66;;;25.92;54.26
27613;BME280;15036;48.094;-1.690;2022-09-01T08:05:30;100970.59;;;25.82;54.67
27613;BME280;15036;48.094;-1.690;2022-09-01T08:07:56;100971.69;;;25.86;54.76
27613;BME280;15036;48.094;-1.690;2022-09-01T08:10:22;100970.81;;;25.91;54.68
27613;BME280;15036;48.094;-1.690;2022-09-01T08:12:47;100981.09;;;25.66;55.97
27613;BME280;15036;48.094;-1.690;2022-09-01T08:15:13;100975.66;;;25.80;55.16
27613;BME280;15036;48.094;-1.690;2022-09-01T08:17:39;100983.56;;;25.73;55.63
27613;BME280;15036;48.094;-1.690;2022-09-01T08:20:05;100986.94;;;25.70;55.60
27613;BME280;15036;48.094;-1.690;2022-09-01T08:22:35;100979.88;;;25.77;55.36
27613;BME280;15036;48.094;-1.690;2022-09-01T08:25:08;100977.47;;;25.66;55.90
27613;BME280;15036;48.094;-1.690;2022-09-01T08:27:35;100984.13;;;25.70;55.77
27613;BME280;15036;48.094;-1.690;2022-09-01T08:30:04;100968.97;;;25.76;55.65
27613;BME280;15036;48.094;-1.690;2022-09-01T08:32:31;100973.63;;;25.86;55.67
27613;BME280;15036;48.094;-1.690;2022-09-01T08:34:56;100971.69;;;25.86;55.74
27613;BME280;15036;48.094;-1.690;2022-09-01T08:37:22;100975.00;;;25.88;55.88
27613;BME280;15036;48.094;-1.690;2022-09-01T08:39:47;100977.38;;;26.05;55.29
27613;BME280;15036;48.094;-1.690;2022-09-01T08:47:57;100969.78;;;26.34;54.93
27613;BME280;15036;48.094;-1.690;2022-09-01T08:50:23;100973.88;;;26.41;54.87
27613;BME280;15036;48.094;-1.690;2022-09-01T08:53:10;100982.59;;;26.40;55.01
27613;BME280;15036;48.094;-1.690;2022-09-01T08:55:43;100982.81;;;26.67;53.45
27613;BME280;15036;48.094;-1.690;2022-09-01T08:58:11;100977.28;;;26.62;54.26
27613;BME280;15036;48.094;-1.690;2022-09-01T09:00:42;100974.66;;;26.71;53.86
27613;BME280;15036;48.094;-1.690;2022-09-01T09:14:10;100975.94;;;26.78;53.08
27613;BME280;15036;48.094;-1.690;2022-09-01T09:16:45;100976.06;;;26.92;53.00
27613;BME280;15036;48.094;-1.690;2022-09-01T09:21:49;100978.47;;;27.17;53.10
27613;BME280;15036;48.094;-1.690;2022-09-01T09:26:54;100971.06;;;27.44;52.22
27613;BME280;15036;48.094;-1.690;2022-09-01T09:29:20;100964.97;;;27.56;51.71
27613;BME280;15036;48.094;-1.690;2022-09-01T09:31:47;100967.97;;;27.60;51.74
27613;BME280;15036;48.094;-1.690;2022-09-01T09:34:36;100975.63;;;27.73;51.81
27613;BME280;15036;48.094;-1.690;2022-09-01T09:37:27;100970.56;;;27.88;51.33
27613;BME280;15036;48.094;-1.690;2022-09-01T09:42:27;100974.72;;;27.91;51.36
27613;BME280;15036;48.094;-1.690;2022-09-01T09:44:53;100974.66;;;28.09;50.65
27613;BME280;15036;48.094;-1.690;2022-09-01T09:47:38;100978.53;;;28.13;50.36
27613;BME280;15036;48.094;-1.690;2022-09-01T09:50:17;100981.97;;;28.24;50.72
27613;BME280;15036;48.094;-1.690;2022-09-01T09:52:44;100973.22;;;28.39;50.22
27613;BME280;15036;48.094;-1.690;2022-09-01T09:55:28;100961.28;;;28.61;50.13
27613;BME280;15036;48.094;-1.690;2022-09-01T09:57:57;100957.97;;;28.59;49.38
27613;BME280;15036;48.094;-1.690;2022-09-01T10:02:57;100962.03;;;29.02;48.75
27613;BME280;15036;48.094;-1.690;2022-09-01T10:08:02;100958.97;;;28.90;49.20
27613;BME280;15036;48.094;-1.690;2022-09-01T10:10:37;100954.94;;;29.04;48.94
27613;BME280;15036;48.094;-1.690;2022-09-01T10:13:27;100953.31;;;29.03;48.42
27613;BME280;15036;48.094;-1.690;2022-09-01T10:15:56;100949.06;;;29.28;48.48
27613;BME280;15036;48.094;-1.690;2022-09-01T10:18:29;100953.50;;;29.43;47.97
27613;BME280;15036;48.094;-1.690;2022-09-01T10:21:11;100950.41;;;29.53;47.93
27613;BME280;15036;48.094;-1.690;2022-09-01T10:23:38;100954.19;;;29.48;47.57
27613;BME280;15036;48.094;-1.690;2022-09-01T10:26:31;100954.06;;;29.75;46.74
27613;BME280;15036;48.094;-1.690;2022-09-01T10:29:04;100953.56;;;29.73;47.01
27613;BME280;15036;48.094;-1.690;2022-09-01T10:31:31;100952.81;;;29.68;47.12
27613;BME280;15036;48.094;-1.690;2022-09-01T10:33:57;100951.97;;;29.81;47.03
27613;BME280;15036;48.094;-1.690;2022-09-01T10:36:25;100949.59;;;29.74;47.01
27613;BME280;15036;48.094;-1.690;2022-09-01T10:38:50;100954.28;;;29.79;46.75
27613;BME280;15036;48.094;-1.690;2022-09-01T10:41:45;100949.00;;;29.86;47.00
27613;BME280;15036;48.094;-1.690;2022-09-01T10:44:27;100945.75;;;30.01;46.49
27613;BME280;15036;48.094;-1.690;2022-09-01T10:47:07;100945.84;;;30.27;46.03
27613;BME280;15036;48.094;-1.690;2022-09-01T10:51:59;100941.41;;;30.26;46.10
27613;BME280;15036;48.094;-1.690;2022-09-01T10:57:11;100940.84;;;30.46;45.22
27613;BME280;15036;48.094;-1.690;2022-09-01T10:59:46;100937.25;;;30.23;44.98
27613;BME280;15036;48.094;-1.690;2022-09-01T11:02:14;100942.16;;;30.09;45.93
27613;BME280;15036;48.094;-1.690;2022-09-01T11:09:45;100944.81;;;30.45;44.56
27613;BME280;15036;48.094;-1.690;2022-09-01T11:15:03;100944.50;;;30.55;44.64
27613;BME280;15036;48.094;-1.690;2022-09-01T11:17:31;100937.38;;;30.57;44.87
27613;BME280;15036;48.094;-1.690;2022-09-01T11:20:07;100941.84;;;30.58;44.87
27613;BME280;15036;48.094;-1.690;2022-09-01T11:22:42;100940.94;;;30.80;43.90
27613;BME280;15036;48.094;-1.690;2022-09-01T11:25:52;100943.22;;;30.69;44.59
27613;BME280;15036;48.094;-1.690;2022-09-01T11:28:06;100942.31;;;31.00;43.68
27613;BME280;15036;48.094;-1.690;2022-09-01T11:35:45;100931.97;;;30.78;43.28
27613;BME280;15036;48.094;-1.690;2022-09-01T11:38:14;100943.44;;;30.99;43.04
27613;BME280;15036;48.094;-1.690;2022-09-01T11:40:40;100928.34;;;31.03;43.11
27613;BME280;15036;48.094;-1.690;2022-09-01T11:43:13;100929.38;;;31.16;43.28
27613;BME280;15036;48.094;-1.690;2022-09-01T11:46:11;100922.38;;;31.05;42.83
27613;BME280;15036;48.094;-1.690;2022-09-01T11:48:45;100928.84;;;31.31;42.13
27613;BME280;15036;48.094;-1.690;2022-09-01T11:51:10;100930.34;;;31.11;42.44
27613;BME280;15036;48.094;-1.690;2022-09-01T11:53:36;100924.84;;;31.32;42.60
27613;BME280;15036;48.094;-1.690;2022-09-01T11:56:34;100926.03;;;30.97;42.38
27613;BME280;15036;48.094;-1.690;2022-09-01T11:59:00;100933.19;;;31.20;42.55
27613;BME280;15036;48.094;-1.690;2022-09-01T12:01:34;100918.69;;;31.64;41.76
27613;BME280;15036;48.094;-1.690;2022-09-01T12:04:22;100916.06;;;31.33;42.53
27613;BME280;15036;48.094;-1.690;2022-09-01T12:07:07;100920.22;;;31.44;42.27
27613;BME280;15036;48.094;-1.690;2022-09-01T12:09:41;100921.84;;;31.71;41.65
27613;BME280;15036;48.094;-1.690;2022-09-01T12:12:26;100913.16;;;31.93;40.88
27613;BME280;15036;48.094;-1.690;2022-09-01T12:15:22;100915.53;;;31.66;41.19
27613;BME280;15036;48.094;-1.690;2022-09-01T12:17:48;100915.19;;;32.22;40.73
27613;BME280;15036;48.094;-1.690;2022-09-01T12:20:29;100903.28;;;32.08;39.87
27613;BME280;15036;48.094;-1.690;2022-09-01T12:22:57;100910.81;;;32.33;39.87
27613;BME280;15036;48.094;-1.690;2022-09-01T12:25:40;100904.84;;;32.64;38.97
27613;BME280;15036;48.094;-1.690;2022-09-01T12:28:06;100906.97;;;32.67;39.53
27613;BME280;15036;48.094;-1.690;2022-09-01T12:30:32;100900.44;;;32.75;38.41
27613;BME280;15036;48.094;-1.690;2022-09-01T12:33:02;100902.63;;;32.49;38.47
27613;BME280;15036;48.094;-1.690;2022-09-01T12:35:30;100901.53;;;32.62;38.14
27613;BME280;15036;48.094;-1.690;2022-09-01T12:40:43;100899.53;;;32.83;37.48
27613;BME280;15036;48.094;-1.690;2022-09-01T12:43:10;100890.09;;;33.20;36.51
27613;BME280;15036;48.094;-1.690;2022-09-01T12:48:01;100881.75;;;33.56;35.75
27613;BME280;15036;48.094;-1.690;2022-09-01T12:53:03;100882.13;;;34.24;34.79
27613;BME280;15036;48.094;-1.690;2022-09-01T12:55:36;100880.97;;;34.25;34.54
27613;BME280;15036;48.094;-1.690;2022-09-01T12:58:05;100888.03;;;34.19;35.67
27613;BME280;15036;48.094;-1.690;2022-09-01T13:00:52;100874.56;;;34.16;34.58
27613;BME280;15036;48.094;-1.690;2022-09-01T13:03:18;100871.88;;;34.07;34.70
27613;BME280;15036;48.094;-1.690;2022-09-01T13:05:45;100876.50;;;33.79;35.41
27613;BME280;15036;48.094;-1.690;2022-09-01T13:08:21;100863.63;;;33.69;35.67
27613;BME280;15036;48.094;-1.690;2022-09-01T13:10:52;100863.19;;;33.47;35.22
27613;BME280;15036;48.094;-1.690;2022-09-01T13:13:20;100866.09;;;33.38;34.67
27613;BME280;15036;48.094;-1.690;2022-09-01T13:15:48;100856.91;;;33.86;34.92
27613;BME280;15036;48.094;-1.690;2022-09-01T13:18:19;100858.97;;;34.58;34.98
27613;BME280;15036;48.094;-1.690;2022-09-01T13:20:46;100851.88;;;35.59;32.66
27613;BME280;15036;48.094;-1.690;2022-09-01T13:23:11;100847.22;;;36.64;31.68
27613;BME280;15036;48.094;-1.690;2022-09-01T13:25:37;100836.09;;;37.12;30.19
27613;BME280;15036;48.094;-1.690;2022-09-01T13:28:05;100830.84;;;37.98;29.22
27613;BME280;15036;48.094;-1.690;2022-09-01T13:30:32;100823.28;;;38.58;27.64
27613;BME280;15036;48.094;-1.690;2022-09-01T13:32:58;100825.97;;;38.73;27.40
27613;BME280;15036;48.094;-1.690;2022-09-01T13:35:24;100835.59;;;38.91;27.26
27613;BME280;15036;48.094;-1.690;2022-09-01T13:37:50;100840.78;;;39.12;26.99
27613;BME280;15036;48.094;-1.690;2022-09-01T13:40:20;100848.03;;;38.24;28.27
27613;BME280;15036;48.094;-1.690;2022-09-01T13:42:48;100839.31;;;37.91;28.80
27613;BME280;15036;48.094;-1.690;2022-09-01T13:45:15;100835.81;;;38.01;28.26
27613;BME280;15036;48.094;-1.690;2022-09-01T13:47:43;100830.25;;;38.11;28.23
27613;BME280;15036;48.094;-1.690;2022-09-01T13:50:11;100823.53;;;38.75;27.14